Time;durP1;ratioP1;P1;durP2;ratioP2;P2;SDS_P1;SDS_P2;PMS_P1;PMS_P2;Temp;Humidity;BMP_temperature;BMP_pressure;BME280_temperature;BME280_humidity;BME280_pressure;Samples;Min_cycle;Max_cycle;Signal;HPM_P1;HPM_P2
2022/08/17 00:01:20;;;;;;;3.42;2.67;;;25.00;41.80;;;;;;5035619;28;20053;-47
2022/08/17 00:03:49;;;;;;;2.40;2.17;;;25.00;41.80;;;;;;5044165;28;20064;-45
2022/08/17 00:06:20;;;;;;;3.08;2.42;;;25.00;41.90;;;;;;5042121;28;20060;-50
2022/08/17 00:08:50;;;;;;;3.03;2.50;;;25.00;42.00;;;;;;5041406;28;20420;-47
2022/08/17 00:11:21;;;;;;;5.50;2.30;;;25.00;42.00;;;;;;5033443;28;20484;-47
2022/08/17 00:13:51;;;;;;;3.67;2.30;;;25.00;42.10;;;;;;5039833;28;20053;-45
2022/08/17 00:16:22;;;;;;;3.97;2.65;;;24.90;42.10;;;;;;5037969;28;20056;-47
2022/08/17 00:18:50;;;;;;;4.93;2.58;;;25.00;42.20;;;;;;5041957;28;20064;-47
2022/08/17 00:21:21;;;;;;;2.90;2.10;;;24.90;42.10;;;;;;5034550;28;20060;-49
2022/08/17 00:23:49;;;;;;;3.53;2.55;;;24.90;42.10;;;;;;5043275;28;20051;-44
2022/08/17 00:26:17;;;;;;;3.17;2.28;;;24.90;42.20;;;;;;5040652;28;20053;-44
2022/08/17 00:28:44;;;;;;;4.03;2.50;;;24.90;42.20;;;;;;5038292;28;20056;-47
2022/08/17 00:31:11;;;;;;;4.80;2.50;;;24.90;42.20;;;;;;5029884;28;20063;-49
2022/08/17 00:33:41;;;;;;;3.55;2.45;;;24.90;42.10;;;;;;5037683;28;20063;-47
2022/08/17 00:36:08;;;;;;;4.45;2.40;;;24.90;42.20;;;;;;5043703;28;20064;-47
2022/08/17 00:38:38;;;;;;;4.88;3.15;;;24.90;42.30;;;;;;5042719;28;20057;-48
2022/08/17 00:41:08;;;;;;;4.72;2.72;;;24.90;42.20;;;;;;5034490;28;20056;-46
2022/08/17 00:43:38;;;;;;;2.92;2.38;;;24.90;42.30;;;;;;5040827;28;20056;-48
2022/08/17 00:46:08;;;;;;;4.07;2.10;;;24.80;42.40;;;;;;5038522;28;20056;-47
2022/08/17 00:48:36;;;;;;;3.60;2.35;;;24.80;42.40;;;;;;5042104;28;20050;-49
2022/08/17 00:51:16;;;;;;;4.05;2.60;;;24.80;42.40;;;;;;5032518;28;20059;-47
2022/08/17 00:53:50;;;;;;;6.32;2.50;;;24.80;42.50;;;;;;5042543;28;20073;-45
2022/08/17 00:56:20;;;;;;;;;;;24.80;42.50;;;;;;5043157;28;20501;-44
2022/08/17 00:58:48;;;;;;;4.75;2.65;;;24.90;42.30;;;;;;5038831;28;19925;-47
2022/08/17 01:01:16;;;;;;;3.50;2.55;;;24.90;42.50;;;;;;5032112;28;20493;-46
2022/08/17 01:03:43;;;;;;;5.32;3.00;;;24.80;42.60;;;;;;5040766;28;20060;-45
2022/08/17 01:06:11;;;;;;;3.38;2.38;;;24.80;42.60;;;;;;5042222;28;20056;-50
2022/08/17 01:08:39;;;;;;;4.22;2.65;;;24.80;42.70;;;;;;5041200;28;20461;-49
2022/08/17 01:11:09;;;;;;;3.58;2.50;;;24.80;42.80;;;;;;5031201;28;20073;-47
2022/08/17 01:13:39;;;;;;;3.63;2.63;;;24.80;42.80;;;;;;5038231;28;20052;-49
2022/08/17 01:16:14;;;;;;;2.63;2.17;;;24.70;42.90;;;;;;5034376;28;20045;-45
2022/08/17 01:18:42;;;;;;;2.85;2.50;;;24.70;42.90;;;;;;5040968;28;20519;-49
2022/08/17 01:21:16;;;;;;;5.57;2.90;;;24.70;42.90;;;;;;5033592;28;20052;-44
2022/08/17 01:23:45;;;;;;;7.00;2.88;;;24.70;43.00;;;;;;5035042;28;20056;-45
2022/08/17 01:26:12;;;;;;;4.72;3.38;;;24.70;43.10;;;;;;5039491;28;20087;-47
2022/08/17 01:28:40;;;;;;;4.43;2.70;;;24.60;43.20;;;;;;5036889;28;20063;-53
2022/08/17 01:31:08;;;;;;;3.53;3.05;;;24.60;43.20;;;;;;5033207;28;20053;-45
2022/08/17 01:33:36;;;;;;;3.60;2.67;;;24.60;43.20;;;;;;5041680;28;20061;-48
2022/08/17 01:36:06;;;;;;;4.47;3.00;;;24.60;43.30;;;;;;5042342;28;20057;-48
2022/08/17 01:38:34;;;;;;;3.13;2.42;;;24.60;43.30;;;;;;5033233;28;20045;-44
2022/08/17 01:41:06;;;;;;;2.88;2.40;;;24.50;43.20;;;;;;5022507;28;20407;-52
2022/08/17 01:43:41;;;;;;;3.28;2.25;;;24.50;43.20;;;;;;5027396;28;20058;-47
2022/08/17 01:46:08;;;;;;;2.97;2.40;;;24.50;43.30;;;;;;5034768;28;20409;-46
2022/08/17 01:48:37;;;;;;;4.78;2.65;;;24.50;43.30;;;;;;5035857;28;20482;-47
2022/08/17 01:51:07;;;;;;;3.25;2.45;;;24.50;43.40;;;;;;5034758;28;20056;-46
2022/08/17 01:53:39;;;;;;;6.35;2.90;;;24.50;43.40;;;;;;5036632;28;20048;-47
2022/08/17 01:56:11;;;;;;;3.00;2.47;;;24.40;43.40;;;;;;4975756;28;20402;-46
2022/08/17 01:58:41;;;;;;;5.18;3.00;;;24.40;43.60;;;;;;4973695;28;20046;-45
2022/08/17 02:01:10;;;;;;;2.97;2.28;;;24.40;43.60;;;;;;4977274;28;20054;-46
2022/08/17 02:03:38;;;;;;;5.03;2.70;;;24.40;43.70;;;;;;4979904;28;20052;-45
2022/08/17 02:06:06;;;;;;;3.55;2.72;;;24.40;43.60;;;;;;4979017;28;20081;-45
2022/08/17 02:08:35;;;;;;;4.85;2.97;;;24.30;43.60;;;;;;4982244;28;20054;-45
2022/08/17 02:11:03;;;;;;;4.80;2.53;;;24.30;43.60;;;;;;4981176;28;20054;-44
2022/08/17 02:13:33;;;;;;;4.50;2.70;;;24.30;43.70;;;;;;4979422;28;20053;-47
2022/08/17 02:16:01;;;;;;;2.92;2.63;;;24.30;43.70;;;;;;4981709;28;20396;-49
2022/08/17 02:18:29;;;;;;;3.63;2.70;;;24.20;43.70;;;;;;4981751;28;20051;-49
2022/08/17 02:20:57;;;;;;;3.08;2.65;;;24.20;43.70;;;;;;4979991;28;20058;-45
2022/08/17 02:23:27;;;;;;;5.32;3.05;;;24.20;43.70;;;;;;4982092;28;20058;-46
2022/08/17 02:25:58;;;;;;;4.28;2.60;;;24.20;43.70;;;;;;4980275;28;20073;-47
2022/08/17 02:28:25;;;;;;;4.78;2.50;;;24.20;43.80;;;;;;4979140;28;20419;-47
2022/08/17 02:30:54;;;;;;;3.13;2.80;;;24.10;43.70;;;;;;4977556;28;20518;-47
2022/08/17 02:33:21;;;;;;;5.15;2.85;;;24.10;43.90;;;;;;4995894;28;20060;-46
2022/08/17 02:35:48;;;;;;;3.78;2.90;;;24.10;43.90;;;;;;5001873;28;20409;-47
2022/08/17 02:38:16;;;;;;;2.85;2.35;;;24.10;44.00;;;;;;4998009;28;20056;-48
2022/08/17 02:40:43;;;;;;;3.75;2.70;;;24.10;43.90;;;;;;5002896;28;20064;-48
2022/08/17 02:43:11;;;;;;;3.90;2.45;;;24.00;43.90;;;;;;5003707;28;20062;-48
2022/08/17 02:45:38;;;;;;;7.68;3.22;;;24.00;43.90;;;;;;5002524;28;20413;-52
2022/08/17 02:48:07;;;;;;;3.10;2.72;;;24.00;43.90;;;;;;5005896;28;20065;-47
2022/08/17 02:50:34;;;;;;;4.57;2.80;;;24.00;43.90;;;;;;5001046;28;21351;-45
2022/08/17 02:53:01;;;;;;;5.97;2.85;;;24.00;43.90;;;;;;5003554;28;20597;-45
2022/08/17 02:55:31;;;;;;;3.92;2.90;;;24.00;44.00;;;;;;5019639;28;20068;-47
2022/08/17 02:57:58;;;;;;;2.97;2.55;;;24.00;44.10;;;;;;5024135;28;20061;-50
2022/08/17 03:00:29;;;;;;;2.88;2.53;;;23.90;44.00;;;;;;5019569;28;20065;-45
2022/08/17 03:02:57;;;;;;;3.17;2.60;;;23.90;44.10;;;;;;5019068;28;20069;-45
2022/08/17 03:05:29;;;;;;;7.13;3.40;;;23.90;44.10;;;;;;5024258;28;20050;-48
2022/08/17 03:07:57;;;;;;;5.07;2.60;;;23.90;44.20;;;;;;5021082;28;20497;-47
2022/08/17 03:10:25;;;;;;;3.28;2.40;;;23.90;44.20;;;;;;5021376;28;20049;-49
2022/08/17 03:12:53;;;;;;;4.53;3.00;;;23.90;44.30;;;;;;5022229;28;20053;-47
2022/08/17 03:15:23;;;;;;;3.72;2.85;;;23.90;44.40;;;;;;5024442;28;20053;-45
2022/08/17 03:17:51;;;;;;;4.68;2.97;;;23.80;44.40;;;;;;5024114;28;20121;-45
2022/08/17 03:20:19;;;;;;;5.03;3.15;;;23.80;44.40;;;;;;5021411;28;20060;-48
2022/08/17 03:22:50;;;;;;;4.28;3.10;;;23.80;44.40;;;;;;5023835;28;20068;-47
2022/08/17 03:25:20;;;;;;;3.80;3.10;;;23.70;44.40;;;;;;5017939;28;20053;-47
2022/08/17 03:27:48;;;;;;;4.05;2.60;;;23.70;44.50;;;;;;5008275;28;20064;-47
2022/08/17 03:30:15;;;;;;;4.28;3.08;;;23.70;44.50;;;;;;5009016;28;22094;-46
2022/08/17 03:32:44;;;;;;;3.15;2.78;;;23.70;44.50;;;;;;5021196;28;20506;-45
2022/08/17 03:35:16;;;;;;;4.68;2.80;;;23.70;44.50;;;;;;5024232;28;20569;-46
2022/08/17 03:37:43;;;;;;;3.55;3.00;;;23.70;44.50;;;;;;5021093;28;20049;-47
2022/08/17 03:40:12;;;;;;;3.47;2.40;;;23.60;44.40;;;;;;5012124;28;20421;-46
2022/08/17 03:42:41;;;;;;;4.32;2.65;;;23.60;44.50;;;;;;5022512;28;20053;-46
2022/08/17 03:45:13;;;;;;;4.32;2.65;;;23.60;44.40;;;;;;5019437;28;20064;-48
2022/08/17 03:58:45;;;;;;;5.97;3.03;;;23.50;44.70;;;;;;5024641;28;20056;-50
2022/08/17 04:01:13;;;;;;;4.55;2.80;;;23.50;44.70;;;;;;5019598;28;20053;-51
2022/08/17 04:03:40;;;;;;;3.15;2.75;;;23.50;44.70;;;;;;5022960;28;20061;-47
2022/08/17 04:06:07;;;;;;;3.28;2.70;;;23.50;44.70;;;;;;5023223;28;20057;-47
2022/08/17 04:08:36;;;;;;;5.35;3.03;;;23.50;44.80;;;;;;5021541;28;20065;-51
2022/08/17 04:11:07;;;;;;;5.25;3.00;;;23.40;44.70;;;;;;5017547;28;20484;-48
2022/08/17 04:13:34;;;;;;;3.45;2.92;;;23.40;44.70;;;;;;5016770;28;20516;-47
2022/08/17 04:16:01;;;;;;;7.28;3.17;;;23.40;44.70;;;;;;5016470;28;20065;-45
2022/08/17 04:18:28;;;;;;;3.75;2.72;;;23.40;44.70;;;;;;5012326;28;20494;-48
2022/08/17 04:20:56;;;;;;;4.97;2.90;;;23.40;44.70;;;;;;5004484;28;20076;-50
2022/08/17 04:23:27;;;;;;;6.22;2.90;;;23.40;44.70;;;;;;5022590;28;20061;-45
2022/08/17 04:25:54;;;;;;;3.70;2.70;;;23.40;44.70;;;;;;5018119;28;20057;-45
2022/08/17 04:28:22;;;;;;;3.50;2.80;;;23.40;44.70;;;;;;5022346;28;20056;-47
2022/08/17 04:30:50;;;;;;;3.17;2.50;;;23.40;44.70;;;;;;5018163;28;20511;-45
2022/08/17 04:33:19;;;;;;;3.78;2.40;;;23.40;44.70;;;;;;5023052;28;20062;-46
2022/08/17 04:35:49;;;;;;;4.20;2.90;;;23.40;44.70;;;;;;5018011;28;20505;-44
2022/08/17 04:38:19;;;;;;;3.63;2.58;;;23.40;44.80;;;;;;5017354;28;20064;-47
2022/08/17 04:43:34;;;;;;;3.90;2.55;;;23.40;44.70;;;;;;5016544;28;20049;-45
2022/08/17 04:46:03;;;;;;;5.75;2.70;;;23.40;44.70;;;;;;5019485;28;20053;-49
2022/08/17 04:48:33;;;;;;;3.00;2.70;;;23.40;44.70;;;;;;5014563;28;20064;-48
2022/08/17 04:51:01;;;;;;;3.80;3.05;;;23.40;44.70;;;;;;5006927;28;20060;-47
2022/08/17 04:53:28;;;;;;;4.45;2.97;;;23.40;44.70;;;;;;4996276;28;20858;-47
2022/08/17 04:55:57;;;;;;;5.00;3.00;;;23.40;44.70;;;;;;5000499;28;20057;-50
2022/08/17 04:58:24;;;;;;;3.65;2.58;;;23.40;44.70;;;;;;5010328;28;20374;-45
2022/08/17 05:00:53;;;;;;;4.22;2.70;;;23.40;44.80;;;;;;4996662;28;20054;-45
2022/08/17 05:03:20;;;;;;;2.95;2.35;;;23.40;44.80;;;;;;5009929;28;20171;-48
2022/08/17 05:05:48;;;;;;;4.22;2.80;;;23.40;44.80;;;;;;5004383;28;20059;-48
2022/08/17 05:08:16;;;;;;;4.78;2.67;;;23.40;44.80;;;;;;5002805;28;20080;-49
2022/08/17 05:10:45;;;;;;;4.30;2.88;;;23.40;45.30;;;;;;5005512;28;20057;-47
2022/08/17 05:13:15;;;;;;;3.78;3.00;;;23.40;44.80;;;;;;5006781;28;20056;-46
2022/08/17 05:15:44;;;;;;;3.78;2.58;;;23.40;44.80;;;;;;5010602;28;20054;-45
2022/08/17 05:18:12;;;;;;;3.55;2.80;;;23.40;44.90;;;;;;5006100;28;20058;-47
2022/08/17 05:20:41;;;;;;;3.42;2.72;;;23.40;45.00;;;;;;5003853;28;20056;-47
2022/08/17 05:23:12;;;;;;;2.35;2.15;;;23.40;44.90;;;;;;5011281;28;20418;-48
2022/08/17 05:25:41;;;;;;;3.92;2.70;;;23.40;45.00;;;;;;5001716;28;20053;-47
2022/08/17 05:28:10;;;;;;;5.95;2.80;;;23.50;45.00;;;;;;5001345;28;20057;-48
2022/08/17 05:30:38;;;;;;;3.35;2.55;;;23.50;45.00;;;;;;5005934;28;20054;-50
2022/08/17 05:33:08;;;;;;;3.13;2.30;;;23.50;45.00;;;;;;5005062;28;20050;-49
2022/08/17 05:35:41;;;;;;;6.53;2.60;;;23.50;45.10;;;;;;5010267;28;20060;-52
2022/08/17 05:38:08;;;;;;;3.70;2.72;;;23.50;45.20;;;;;;5007867;28;20053;-48
2022/08/17 05:40:37;;;;;;;3.85;2.58;;;23.50;45.10;;;;;;5003438;28;20061;-46
2022/08/17 05:43:07;;;;;;;4.25;2.55;;;23.50;45.00;;;;;;5001436;28;20057;-46
2022/08/17 05:45:39;;;;;;;2.97;2.33;;;23.60;45.30;;;;;;5003231;28;20524;-47
2022/08/17 05:48:07;;;;;;;2.90;2.67;;;23.50;45.20;;;;;;5003006;28;20049;-48
2022/08/17 05:50:46;;;;;;;3.28;2.25;;;23.60;45.20;;;;;;5001685;28;20049;-46
2022/08/17 05:53:23;;;;;;;4.00;2.85;;;23.60;45.20;;;;;;5002481;28;20049;-49
2022/08/17 05:55:58;;;;;;;2.80;2.25;;;23.60;45.30;;;;;;5004356;28;20061;-46
2022/08/17 05:58:37;;;;;;;3.92;2.97;;;23.60;45.40;;;;;;5005493;28;20053;-46
2022/08/17 06:01:09;;;;;;;3.80;2.70;;;23.70;45.30;;;;;;5002187;28;20045;-51
2022/08/17 06:03:47;;;;;;;2.92;2.47;;;23.70;45.50;;;;;;5004722;28;20065;-47
2022/08/17 06:06:31;;;;;;;3.95;2.42;;;23.70;45.50;;;;;;5002905;28;20068;-46
2022/08/17 06:09:18;;;;;;;4.65;2.90;;;23.70;45.50;;;;;;5004746;28;20057;-49
2022/08/17 06:11:51;;;;;;;3.63;2.65;;;23.70;45.40;;;;;;5002587;28;20049;-49
2022/08/17 06:14:39;;;;;;;3.38;2.60;;;23.80;45.50;;;;;;5008687;28;20425;-48
2022/08/17 06:17:11;;;;;;;3.92;2.60;;;23.80;45.50;;;;;;5007943;28;20050;-49
2022/08/17 06:19:42;;;;;;;5.50;2.78;;;23.90;45.40;;;;;;5004555;28;20064;-48
2022/08/17 06:22:14;;;;;;;3.25;2.58;;;23.80;45.40;;;;;;5007831;28;20065;-50
2022/08/17 06:24:45;;;;;;;3.53;2.95;;;23.80;45.40;;;;;;5017362;28;20630;-50
2022/08/17 06:27:19;;;;;;;2.65;2.33;;;23.80;45.30;;;;;;5013862;28;20057;-50
2022/08/17 06:29:53;;;;;;;4.13;2.40;;;23.90;45.40;;;;;;5014148;28;20413;-48
2022/08/17 06:32:20;;;;;;;4.35;2.85;;;23.90;45.50;;;;;;5017471;28;20432;-48
2022/08/17 06:34:48;;;;;;;6.63;3.03;;;24.00;45.50;;;;;;5014778;28;20057;-50
2022/08/17 06:37:43;;;;;;;3.55;2.40;;;24.00;45.40;;;;;;5020330;28;20053;-44
2022/08/17 06:40:21;;;;;;;3.65;2.90;;;24.00;45.50;;;;;;5013582;28;20417;-47
2022/08/17 06:42:58;;;;;;;3.75;2.65;;;24.10;45.50;;;;;;5018119;28;21000;-48
2022/08/17 06:45:30;;;;;;;3.20;2.50;;;24.00;45.40;;;;;;5016887;28;20049;-50
2022/08/17 06:48:04;;;;;;;4.20;2.80;;;24.10;45.60;;;;;;5019981;28;20049;-47
2022/08/17 06:50:37;;;;;;;2.75;2.50;;;24.10;45.70;;;;;;5016991;28;20509;-46
2022/08/17 06:53:13;;;;;;;4.22;3.08;;;24.10;45.70;;;;;;5001538;28;20049;-48
2022/08/17 06:55:45;;;;;;;3.58;2.90;;;24.20;45.70;;;;;;5014629;28;20706;-50
2022/08/17 06:58:14;;;;;;;3.53;2.47;;;24.20;45.60;;;;;;5017028;28;20589;-45
2022/08/17 07:00:44;;;;;;;3.38;2.17;;;24.20;45.50;;;;;;5017984;28;20053;-47
2022/08/17 07:03:19;;;;;;;4.25;2.72;;;24.20;45.50;;;;;;5015620;28;20050;-51
2022/08/17 07:05:51;;;;;;;4.88;3.20;;;24.30;45.90;;;;;;5008187;28;20050;-45
2022/08/17 07:08:32;;;;;;;4.38;2.83;;;24.30;45.90;;;;;;5007250;28;20053;-51
2022/08/17 07:11:04;;;;;;;3.72;2.50;;;24.40;45.90;;;;;;4998461;28;20049;-48
2022/08/17 07:13:42;;;;;;;5.60;2.80;;;24.40;45.80;;;;;;5001769;28;20497;-50
2022/08/17 07:16:19;;;;;;;5.20;2.75;;;24.50;45.70;;;;;;5007852;28;20053;-50
2022/08/17 07:18:49;;;;;;;4.82;2.58;;;24.50;45.60;;;;;;5000959;28;20057;-48
2022/08/17 07:21:29;;;;;;;3.78;2.72;;;24.50;45.40;;;;;;5006363;28;20394;-45
2022/08/17 07:24:12;;;;;;;2.60;2.40;;;24.60;45.20;;;;;;5007745;28;20053;-49
2022/08/17 07:26:39;;;;;;;5.78;2.65;;;24.70;45.70;;;;;;5022519;28;20053;-47
2022/08/17 07:29:10;;;;;;;5.90;3.15;;;24.70;45.50;;;;;;5017143;28;20490;-45
2022/08/17 07:31:37;;;;;;;18.45;3.67;;;24.70;45.50;;;;;;5013090;28;20049;-48
2022/08/17 07:34:09;;;;;;;7.90;2.92;;;24.80;45.70;;;;;;5017761;28;20058;-47
2022/08/17 07:36:37;;;;;;;7.53;3.47;;;24.80;45.50;;;;;;5008756;28;20065;-50
2022/08/17 07:39:05;;;;;;;7.75;3.90;;;24.80;45.50;;;;;;5020700;28;20080;-48
2022/08/17 07:41:39;;;;;;;8.80;3.20;;;24.80;45.20;;;;;;5018887;28;20515;-48
2022/08/17 07:44:12;;;;;;;11.10;3.47;;;24.80;45.10;;;;;;5021343;28;20049;-46
2022/08/17 07:49:36;;;;;;;5.78;3.58;;;24.80;44.80;;;;;;5014194;28;20056;-54
2022/08/17 07:52:07;;;;;;;8.20;3.42;;;24.80;45.10;;;;;;5019442;28;20083;-52
2022/08/17 07:54:39;;;;;;;8.43;2.72;;;24.80;45.20;;;;;;5013089;28;20069;-51
2022/08/17 07:57:33;;;;;;;13.57;3.90;;;24.80;45.50;;;;;;5013348;28;20053;-47
2022/08/17 08:00:22;;;;;;;5.75;3.22;;;24.90;45.50;;;;;;5020150;28;20080;-46
2022/08/17 08:03:03;;;;;;;6.47;3.13;;;24.90;45.40;;;;;;5024366;28;20049;-46
2022/08/17 08:05:31;;;;;;;6.38;3.83;;;25.00;45.70;;;;;;5021289;28;20057;-48
2022/08/17 08:08:00;;;;;;;3.88;3.17;;;25.00;45.40;;;;;;5019921;28;20069;-48
2022/08/17 08:10:34;;;;;;;6.32;3.10;;;25.00;45.40;;;;;;5013404;28;20076;-49
2022/08/17 08:13:06;;;;;;;5.03;3.25;;;25.10;45.70;;;;;;5021144;28;20060;-50
2022/08/17 08:15:36;;;;;;;6.45;3.10;;;25.20;45.80;;;;;;5011037;28;20057;-50
2022/08/17 08:18:18;;;;;;;5.05;2.67;;;25.20;45.50;;;;;;5012733;28;20049;-47
2022/08/17 08:20:49;;;;;;;5.35;2.70;;;25.20;45.30;;;;;;5015776;28;20474;-47
2022/08/17 08:23:28;;;;;;;3.08;2.72;;;25.30;45.40;;;;;;5020446;28;20057;-47
2022/08/17 08:26:10;;;;;;;5.18;3.17;;;25.30;45.40;;;;;;5018517;28;20049;-47
2022/08/17 08:28:45;;;;;;;2.97;2.67;;;25.40;45.80;;;;;;5016906;28;20064;-50
2022/08/17 08:31:24;;;;;;;4.43;2.60;;;25.40;45.40;;;;;;5013674;28;20405;-47
2022/08/17 08:34:02;;;;;;;6.03;3.20;;;25.50;45.40;;;;;;5014039;28;20053;-46
2022/08/17 08:36:46;;;;;;;5.18;3.38;;;25.50;45.40;;;;;;5014619;28;20060;-51
2022/08/17 08:39:21;;;;;;;3.90;2.75;;;25.50;46.20;;;;;;5021808;28;20053;-46
2022/08/17 08:42:02;;;;;;;5.28;2.97;;;25.50;45.70;;;;;;5006142;28;20620;-47
2022/08/17 08:44:39;;;;;;;3.78;2.75;;;25.50;45.60;;;;;;5012879;28;20045;-46
2022/08/17 08:47:17;;;;;;;6.13;3.10;;;25.60;45.60;;;;;;5009199;28;20049;-46
2022/08/17 08:49:59;;;;;;;4.25;3.28;;;25.50;45.60;;;;;;5002837;28;20053;-49
2022/08/17 08:52:50;;;;;;;6.18;3.33;;;25.60;46.60;;;;;;5018656;28;20508;-46
2022/08/17 08:55:31;;;;;;;5.65;3.22;;;25.50;46.40;;;;;;5020223;28;20445;-49
2022/08/17 08:58:03;;;;;;;5.57;3.45;;;25.60;46.30;;;;;;5005656;28;20053;-49
2022/08/17 09:00:34;;;;;;;5.22;3.35;;;25.50;46.00;;;;;;5000868;28;20422;-45
2022/08/17 09:03:22;;;;;;;9.80;3.70;;;25.60;45.90;;;;;;5005307;28;20061;-47
2022/08/17 09:06:07;;;;;;;6.85;3.92;;;25.50;46.30;;;;;;5002701;28;20088;-47
2022/08/17 09:08:51;;;;;;;10.70;3.53;;;25.50;46.10;;;;;;5004147;28;20409;-51
2022/08/17 09:11:29;;;;;;;14.02;4.22;;;25.50;46.00;;;;;;5013504;28;20057;-50
2022/08/17 09:14:08;;;;;;;7.85;3.90;;;25.50;46.30;;;;;;5012482;28;20060;-52
2022/08/17 09:16:40;;;;;;;11.35;4.72;;;25.50;46.10;;;;;;5010880;28;20046;-45
2022/08/17 09:19:13;;;;;;;8.43;3.92;;;25.40;45.80;;;;;;5010223;28;20061;-49
2022/08/17 09:21:45;;;;;;;6.10;3.63;;;25.40;45.90;;;;;;5003179;28;20049;-48
2022/08/17 09:24:19;;;;;;;7.72;4.03;;;25.40;45.80;;;;;;5004027;28;20072;-50
2022/08/17 09:26:52;;;;;;;9.10;4.22;;;25.40;45.90;;;;;;5003866;28;20057;-49
2022/08/17 09:29:25;;;;;;;8.53;4.90;;;25.40;45.80;;;;;;5003379;28;20051;-48
2022/08/17 09:31:56;;;;;;;13.63;5.25;;;25.40;45.80;;;;;;5009183;28;20571;-49
2022/08/17 09:34:31;;;;;;;8.68;4.82;;;25.30;45.70;;;;;;5001846;28;20065;-48
2022/08/17 09:37:07;;;;;;;7.07;4.68;;;25.30;45.60;;;;;;5005123;28;20064;-47
2022/08/17 09:39:40;;;;;;;11.05;4.85;;;25.20;45.60;;;;;;5006288;28;20068;-50
2022/08/17 09:42:15;;;;;;;8.93;4.40;;;25.20;45.70;;;;;;5004692;28;20500;-45
2022/08/17 09:44:54;;;;;;;8.63;4.53;;;25.10;45.70;;;;;;5003880;28;20064;-49
2022/08/17 09:47:29;;;;;;;12.23;4.63;;;25.10;45.50;;;;;;5020278;28;20120;-51
2022/08/17 09:50:01;;;;;;;11.38;4.88;;;25.10;45.70;;;;;;5003681;28;20057;-53
2022/08/17 09:52:30;;;;;;;10.05;4.78;;;25.10;45.50;;;;;;5010895;28;20041;-48
2022/08/17 09:54:59;;;;;;;8.75;4.60;;;25.10;45.50;;;;;;5003612;28;20087;-55
2022/08/17 09:57:39;;;;;;;11.48;5.63;;;25.00;45.20;;;;;;5007623;28;20053;-50
2022/08/17 10:00:17;;;;;;;10.23;4.85;;;25.10;45.40;;;;;;4997589;28;20409;-56
2022/08/17 10:03:24;;;;;;;18.05;5.35;;;25.10;45.30;;;;;;5003671;28;21426;-50
2022/08/17 10:05:56;;;;;;;13.10;6.47;;;25.20;45.30;;;;;;5000385;28;20519;-51
2022/08/17 10:08:33;;;;;;;15.95;7.47;;;25.30;45.30;;;;;;5010814;28;20049;-49
2022/08/17 10:11:15;;;;;;;12.90;8.02;;;25.30;45.40;;;;;;4997356;28;20062;-50
2022/08/17 10:13:49;;;;;;;23.25;8.48;;;25.40;45.50;;;;;;4998206;28;20494;-48
2022/08/17 10:16:25;;;;;;;12.73;7.72;;;25.40;45.40;;;;;;4998852;28;20536;-46
2022/08/17 10:19:06;;;;;;;15.93;8.25;;;25.50;45.60;;;;;;5002819;28;20537;-48
2022/08/17 10:27:17;;;;;;;15.20;9.38;;;25.70;45.20;;;;;;4999152;28;20064;-49
2022/08/17 10:29:51;;;;;;;12.13;8.40;;;25.80;45.20;;;;;;4994654;28;20068;-54
2022/08/17 10:32:31;;;;;;;17.55;8.57;;;25.90;45.00;;;;;;4998635;28;20049;-55
2022/08/17 10:35:11;;;;;;;24.52;9.13;;;25.90;44.70;;;;;;5002837;28;20049;-49
2022/08/17 10:38:06;;;;;;;14.63;9.35;;;25.90;44.80;;;;;;5006364;28;20496;-50
2022/08/17 10:40:44;;;;;;;15.38;8.30;;;26.00;44.90;;;;;;5009740;28;20057;-50
2022/08/17 10:43:23;;;;;;;14.10;8.90;;;26.00;45.20;;;;;;5017564;28;20072;-46
2022/08/17 10:46:01;;;;;;;14.98;10.20;;;26.10;44.80;;;;;;5016807;28;20425;-51
2022/08/17 10:48:35;;;;;;;14.07;9.82;;;26.10;44.30;;;;;;5019581;28;20052;-47
2022/08/17 10:51:07;;;;;;;13.25;8.43;;;26.20;44.50;;;;;;5017661;28;20058;-46
2022/08/17 10:53:55;;;;;;;14.50;8.82;;;26.20;44.80;;;;;;5021769;28;20054;-48
2022/08/17 10:56:43;;;;;;;15.55;9.20;;;26.20;44.20;;;;;;5023451;28;20065;-49
2022/08/17 10:59:50;;;;;;;15.60;10.30;;;26.30;44.20;;;;;;5018684;28;20611;-56
2022/08/17 11:02:26;;;;;;;17.90;10.98;;;26.40;44.50;;;;;;5025006;28;20056;-50
2022/08/17 11:05:18;;;;;;;16.13;10.15;;;26.40;44.30;;;;;;5020850;28;20053;-47
2022/08/17 11:08:04;;;;;;;10.95;8.93;;;26.50;44.60;;;;;;5025206;28;20425;-46
2022/08/17 11:10:46;;;;;;;14.93;10.18;;;26.60;44.50;;;;;;5023840;28;20057;-45
2022/08/17 11:13:27;;;;;;;14.45;10.23;;;26.70;44.30;;;;;;5022945;28;20045;-49
2022/08/17 11:16:07;;;;;;;13.15;10.23;;;26.70;43.90;;;;;;5024184;28;20053;-48
2022/08/17 11:19:07;;;;;;;15.90;10.50;;;26.80;44.00;;;;;;5022396;28;20053;-51
2022/08/17 11:22:04;;;;;;;16.58;11.73;;;26.80;43.80;;;;;;5020055;28;20057;-48
2022/08/17 11:24:35;;;;;;;16.77;10.60;;;26.80;42.90;;;;;;4998536;28;20065;-47
2022/08/17 11:27:08;;;;;;;25.33;12.85;;;26.80;43.40;;;;;;5023844;28;20053;-46
2022/08/17 11:29:46;;;;;;;14.63;11.70;;;26.70;43.30;;;;;;5019443;28;20053;-49
2022/08/17 11:32:31;;;;;;;20.80;11.88;;;26.70;43.10;;;;;;5023363;28;20053;-47
2022/08/17 11:35:33;;;;;;;15.50;11.82;;;26.70;43.00;;;;;;5024686;28;21052;-47
2022/08/17 11:38:15;;;;;;;17.08;11.38;;;26.70;43.10;;;;;;5021561;28;20061;-47
2022/08/17 11:41:00;;;;;;;16.17;12.13;;;26.70;43.40;;;;;;5020824;28;20400;-50
2022/08/17 11:43:54;;;;;;;18.60;12.55;;;26.70;42.90;;;;;;5022549;28;20064;-48
2022/08/17 11:51:32;;;;;;;17.70;12.23;;;26.60;43.40;;;;;;5024163;28;20088;-49
2022/08/17 11:52:39;;;;;;;15.05;12.10;;;26.70;43.70;;;;;;5029860;28;20500;-47
2022/08/17 11:55:09;;;;;;;17.67;12.45;;;26.80;43.50;;;;;;5023302;28;20429;-52
2022/08/17 11:58:00;;;;;;;16.58;12.13;;;26.80;43.20;;;;;;5020022;28;20061;-47
2022/08/17 12:00:49;;;;;;;23.30;13.43;;;26.90;43.10;;;;;;5022015;28;20053;-51
2022/08/17 12:03:22;;;;;;;15.43;11.15;;;26.90;42.70;;;;;;5021031;28;20049;-46
2022/08/17 12:05:52;;;;;;;14.40;11.07;;;26.90;42.90;;;;;;5024357;28;20714;-50
2022/08/17 12:08:22;;;;;;;15.35;12.10;;;26.90;42.90;;;;;;5023052;28;20053;-50
2022/08/17 12:10:59;;;;;;;21.15;13.93;;;26.90;42.80;;;;;;5020166;28;20080;-46
2022/08/17 12:13:28;;;;;;;11.95;10.45;;;26.90;42.60;;;;;;5020705;28;20052;-48
2022/08/17 12:15:56;;;;;;;16.08;11.75;;;27.00;42.70;;;;;;5021049;28;20441;-49
2022/08/17 12:18:26;;;;;;;23.10;12.15;;;27.00;43.00;;;;;;5023209;28;20390;-46
2022/08/17 12:21:12;;;;;;;12.23;10.13;;;27.10;43.40;;;;;;5017272;28;20494;-48
2022/08/17 12:23:49;;;;;;;16.85;12.10;;;27.10;43.30;;;;;;5021056;28;20064;-47
2022/08/17 12:26:19;;;;;;;13.20;10.10;;;27.20;42.90;;;;;;5020258;28;20060;-47
2022/08/17 12:28:48;;;;;;;12.80;10.98;;;27.30;42.80;;;;;;5022279;28;20045;-48
2022/08/17 12:31:21;;;;;;;13.90;10.85;;;27.30;42.80;;;;;;5024123;28;20049;-52
2022/08/17 12:33:50;;;;;;;18.60;12.55;;;27.30;42.60;;;;;;5022000;28;20080;-45
2022/08/17 12:36:23;;;;;;;18.25;11.25;;;27.40;42.50;;;;;;5024081;28;20053;-47
2022/08/17 12:39:00;;;;;;;18.10;11.68;;;27.40;42.70;;;;;;5023264;28;20057;-47
2022/08/17 12:41:37;;;;;;;13.25;11.10;;;27.50;43.00;;;;;;5021764;28;20056;-47
2022/08/17 12:44:12;;;;;;;15.13;11.50;;;27.50;43.00;;;;;;5021524;28;20049;-49
2022/08/17 12:46:49;;;;;;;18.30;11.82;;;27.60;43.00;;;;;;5023965;28;20057;-48
2022/08/17 12:49:22;;;;;;;14.73;10.93;;;27.70;43.30;;;;;;5022249;28;20057;-48
2022/08/17 12:51:53;;;;;;;16.30;10.55;;;27.80;42.80;;;;;;5019824;28;20497;-46
2022/08/17 12:54:37;;;;;;;12.73;10.00;;;27.80;42.50;;;;;;5019467;28;20061;-50
2022/08/17 12:57:10;;;;;;;14.25;9.98;;;27.90;42.30;;;;;;5022740;28;20053;-51
2022/08/17 12:59:42;;;;;;;13.77;9.50;;;27.90;42.20;;;;;;5018325;28;20057;-47
2022/08/17 13:02:26;;;;;;;15.95;9.73;;;28.00;42.20;;;;;;5020605;28;20405;-47
2022/08/17 13:04:54;;;;;;;11.32;9.73;;;28.10;42.60;;;;;;5021986;28;20408;-51
2022/08/17 13:07:30;;;;;;;14.80;10.40;;;28.10;42.20;;;;;;5023426;28;20069;-48
2022/08/17 13:09:59;;;;;;;12.88;10.13;;;28.20;41.80;;;;;;5019887;28;20041;-48
2022/08/17 13:12:31;;;;;;;14.50;9.85;;;28.30;41.50;;;;;;5019588;28;20049;-48
2022/08/17 13:14:59;;;;;;;14.20;10.50;;;28.30;42.30;;;;;;5019888;28;20068;-47
2022/08/17 13:17:34;;;;;;;15.55;11.63;;;28.30;42.10;;;;;;5020554;28;20080;-47
2022/08/17 13:20:04;;;;;;;14.75;10.65;;;28.40;41.00;;;;;;5020590;28;20516;-48
2022/08/17 13:22:32;;;;;;;14.20;10.70;;;28.40;41.20;;;;;;5023187;28;20532;-51
2022/08/17 13:25:06;;;;;;;15.02;10.40;;;28.40;41.30;;;;;;5022328;28;20378;-47
2022/08/17 13:27:33;;;;;;;17.23;11.43;;;28.40;41.40;;;;;;5021704;28;20076;-50
2022/08/17 13:30:04;;;;;;;18.50;13.20;;;28.40;41.20;;;;;;5017096;28;20508;-49
2022/08/17 13:32:35;;;;;;;16.55;9.93;;;28.40;40.90;;;;;;5021795;28;20461;-47
2022/08/17 13:35:42;;;;;;;11.23;9.25;;;28.40;41.30;;;;;;5022352;28;20053;-47
2022/08/17 13:38:12;;;;;;;16.58;12.30;;;28.50;41.50;;;;;;5020722;28;20408;-46
2022/08/17 13:40:47;;;;;;;16.20;10.27;;;28.40;41.00;;;;;;5018075;28;20615;-46